createdAt,value
2019-05-21T00:06:54.743Z,23.19
2019-05-21T00:16:58.333Z,23.13
2019-05-21T00:27:01.922Z,23.09
2019-05-21T00:37:41.758Z,23.05
2019-05-21T00:47:45.676Z,23.00
2019-05-21T00:57:49.254Z,22.96
2019-05-21T01:07:54.301Z,22.90
2019-05-21T01:17:58.175Z,22.88
2019-05-21T01:28:01.723Z,22.84
2019-05-21T01:38:05.281Z,22.80
2019-05-21T01:48:08.817Z,22.74
2019-05-21T01:58:12.361Z,22.67
2019-05-21T02:08:15.937Z,22.64
2019-05-21T02:18:19.482Z,22.62
2019-05-21T02:28:23.075Z,22.58
2019-05-21T02:38:26.616Z,22.53
2019-05-21T02:48:30.180Z,22.48
2019-05-21T02:58:33.714Z,22.46
2019-05-21T03:08:37.283Z,22.41
2019-05-21T03:18:40.820Z,22.39
2019-05-21T03:28:44.426Z,22.40
2019-05-21T03:38:47.968Z,22.40
2019-05-21T03:48:51.497Z,22.38
2019-05-21T03:58:55.066Z,22.40
2019-05-21T04:08:58.617Z,22.53
2019-05-21T04:19:06.504Z,22.71
2019-05-21T04:29:10.045Z,22.86
2019-05-21T04:39:13.568Z,22.99
2019-05-21T04:49:17.154Z,23.07
2019-05-21T04:59:20.721Z,23.13
2019-05-21T05:09:24.254Z,23.33
2019-05-21T05:19:27.834Z,23.46
2019-05-21T05:29:31.425Z,23.57
2019-05-21T05:39:34.963Z,23.66
2019-05-21T05:49:40.138Z,23.86
2019-05-21T05:59:43.732Z,23.96
2019-05-21T06:09:47.299Z,24.05
2019-05-21T06:19:52.509Z,24.19
2019-05-21T06:29:56.069Z,24.32
2019-05-21T06:39:59.603Z,24.53
2019-05-21T06:50:04.180Z,24.63
2019-05-21T07:00:07.922Z,24.87
2019-05-21T07:10:12.056Z,25.22
2019-05-21T07:20:15.588Z,25.47
2019-05-21T07:30:19.118Z,25.34
2019-05-21T07:40:22.733Z,25.32
2019-05-21T07:50:26.376Z,25.31
2019-05-21T08:00:29.910Z,25.28
2019-05-21T08:10:33.441Z,25.22
2019-05-21T08:20:37.368Z,25.20
2019-05-21T08:30:40.951Z,25.20
2019-05-21T08:40:44.538Z,25.19
2019-05-21T08:50:48.134Z,25.16
2019-05-21T09:00:51.668Z,25.25
2019-05-21T09:10:55.228Z,25.49
2019-05-21T09:20:58.804Z,25.85
2019-05-21T09:31:02.440Z,25.49
2019-05-21T09:41:06.012Z,25.39
2019-05-21T09:51:09.634Z,25.51
2019-05-21T10:01:15.088Z,25.15
2019-05-21T10:11:18.651Z,25.23
2019-05-21T10:21:22.549Z,25.38
2019-05-21T10:31:26.116Z,25.35
2019-05-21T10:41:30.515Z,25.22
2019-05-21T10:51:34.173Z,25.44
2019-05-21T11:01:42.261Z,25.30
2019-05-21T11:11:45.855Z,25.18
2019-05-21T11:21:49.385Z,25.22
2019-05-21T11:31:57.201Z,25.03
2019-05-21T11:41:58.378Z,25.14
2019-05-21T11:52:01.972Z,25.02
2019-05-21T12:02:07.102Z,24.98
2019-05-21T12:12:11.461Z,24.93
2019-05-21T12:22:15.750Z,25.01
2019-05-21T12:32:21.114Z,25.05
2019-05-21T12:42:24.623Z,25.12
2019-05-21T12:52:28.223Z,25.14
2019-05-21T13:02:31.827Z,25.17
2019-05-21T13:12:35.424Z,25.19
2019-05-21T13:22:39.357Z,25.24
2019-05-21T13:32:43.895Z,25.25
2019-05-21T13:42:47.789Z,25.31
2019-05-21T13:52:51.810Z,25.32
2019-05-21T14:02:55.947Z,25.30
2019-05-21T14:12:59.513Z,25.28
2019-05-21T14:23:03.099Z,25.28
2019-05-21T14:33:06.660Z,25.31
2019-05-21T14:43:10.283Z,25.31
2019-05-21T14:53:14.216Z,25.32
2019-05-21T15:03:25.267Z,25.36
2019-05-21T15:13:23.084Z,25.39
2019-05-21T15:23:27.052Z,25.38
2019-05-21T15:33:30.692Z,25.36
2019-05-21T15:43:34.409Z,25.37
2019-05-21T15:53:38.066Z,25.37
2019-05-21T16:03:42.053Z,25.34
2019-05-21T16:13:45.681Z,25.41
2019-05-21T16:23:49.587Z,25.41
2019-05-21T16:33:53.156Z,25.43
2019-05-21T16:43:56.719Z,25.46
2019-05-21T16:54:00.269Z,25.38
2019-05-21T17:04:03.888Z,25.31
2019-05-21T17:14:07.442Z,25.24
2019-05-21T17:24:11.016Z,25.17
2019-05-21T17:34:16.118Z,25.09
2019-05-21T17:44:19.656Z,24.99
2019-05-21T17:54:23.195Z,24.92
2019-05-21T18:04:27.990Z,24.83
2019-05-21T18:14:31.865Z,24.76
2019-05-21T18:24:35.677Z,24.69
2019-05-21T18:34:39.365Z,24.63
2019-05-21T18:44:43.070Z,24.56
2019-05-21T18:54:47.938Z,24.50
2019-05-21T19:04:51.813Z,24.45
2019-05-21T19:14:55.444Z,24.47
2019-05-21T19:24:59.306Z,24.44
2019-05-21T19:35:02.858Z,24.45
2019-05-21T19:45:09.617Z,24.48
2019-05-21T19:55:13.219Z,24.42
2019-05-21T20:05:17.086Z,24.38
2019-05-21T20:15:20.702Z,24.34
2019-05-21T20:25:25.989Z,24.27
2019-05-21T20:35:31.354Z,24.24
2019-05-21T20:45:36.498Z,24.19
2019-05-21T20:55:40.074Z,24.12
2019-05-21T21:05:43.834Z,24.09
2019-05-21T21:15:48.306Z,24.04
2019-05-21T21:25:52.217Z,23.96
2019-05-21T21:35:56.555Z,23.93
2019-05-21T21:46:00.127Z,23.88
2019-05-21T21:56:03.683Z,23.84
2019-05-21T22:06:08.887Z,23.81
2019-05-21T22:16:13.104Z,23.77
2019-05-21T22:26:16.799Z,23.75
2019-05-21T22:36:20.991Z,23.70
2019-05-21T22:46:24.887Z,23.67
2019-05-21T22:56:28.449Z,23.64
2019-05-21T23:06:32.205Z,23.64
2019-05-21T23:16:35.993Z,23.61
2019-05-21T23:26:39.658Z,23.59
2019-05-21T23:36:43.199Z,23.57
2019-05-21T23:46:46.953Z,23.53
2019-05-21T23:56:50.502Z,23.53
